Time;durP1;ratioP1;P1;durP2;ratioP2;P2;SDS_P1;SDS_P2;PMS_P1;PMS_P2;Temp;Humidity;BMP_temperature;BMP_pressure;BME280_temperature;BME280_humidity;BME280_pressure;Samples;Min_cycle;Max_cycle;Signal;HPM_P1;HPM_P2
2023/09/22 00:00:38;;;;;;;1.10;0.60;;;;;;;14.67;100.00;149771.38;4909973;29;20230;-59
2023/09/22 00:03:07;;;;;;;0.80;0.50;;;;;;;14.68;100.00;149775.13;4902286;29;20244;-59
2023/09/22 00:05:39;;;;;;;1.60;0.50;;;;;;;14.60;100.00;149756.41;4893067;29;20236;-59
2023/09/22 00:08:06;;;;;;;1.47;0.60;;;;;;;14.66;100.00;149770.13;4899743;29;20248;-59
2023/09/22 00:10:38;;;;;;;3.70;0.67;;;;;;;14.49;100.00;149727.66;4894127;29;20222;-60
2023/09/22 00:13:06;;;;;;;0.77;0.57;;;;;;;14.52;100.00;149735.16;4897175;29;20356;-60
2023/09/22 00:15:38;;;;;;;1.10;0.53;;;;;;;14.52;100.00;149735.16;4895765;29;20236;-59
2023/09/22 00:18:05;;;;;;;0.63;0.40;;;;;;;14.54;100.00;149740.16;4900272;29;20265;-59
2023/09/22 00:20:38;;;;;;;2.43;0.53;;;;;;;14.37;100.00;149698.97;4899289;29;20242;-59
2023/09/22 00:23:05;;;;;;;1.00;0.40;;;;;;;14.22;100.00;149664.00;4896643;29;21061;-59
2023/09/22 00:25:38;;;;;;;1.30;0.60;;;;;;;14.16;100.00;149649.03;4894448;29;20234;-59
2023/09/22 00:28:07;;;;;;;1.20;0.50;;;;;;;14.21;100.00;149661.50;4897506;29;20242;-59
2023/09/22 00:30:38;;;;;;;1.37;0.60;;;;;;;14.03;100.00;149617.84;4909639;29;20316;-59
2023/09/22 00:33:05;;;;;;;1.63;0.70;;;;;;;13.97;100.00;149602.84;4896911;29;20317;-59
2023/09/22 00:35:38;;;;;;;2.10;0.50;;;;;;;14.10;100.00;149634.03;4909229;29;20236;-60
2023/09/22 00:38:06;;;;;;;0.90;0.43;;;;;;;13.92;100.00;149590.38;4900025;29;20230;-59
2023/09/22 00:40:39;;;;;;;2.90;0.50;;;;;;;13.80;100.00;149562.91;4900442;29;20225;-59
2023/09/22 00:43:09;;;;;;;1.67;0.60;;;;;;;13.76;100.00;149552.94;4918146;29;20603;-60
2023/09/22 00:45:44;;;;;;;2.60;0.70;;;;;;;13.88;100.00;149581.59;4916270;29;20614;-60
2023/09/22 00:48:11;;;;;;;3.07;0.60;;;;;;;13.75;100.00;149549.22;4902914;29;20220;-59
2023/09/22 00:50:39;;;;;;;2.80;0.53;;;;;;;13.78;100.00;149556.69;4904978;29;20851;-59
2023/09/22 00:53:05;;;;;;;4.73;0.60;;;;;;;13.88;100.00;149582.88;4904615;29;20233;-59
2023/09/22 00:55:38;;;;;;;0.63;0.47;;;;;;;13.93;100.00;149592.88;4898500;29;20724;-59
2023/09/22 00:58:05;;;;;;;2.20;0.47;;;;;;;13.90;100.00;149586.59;4917148;29;20224;-60
2023/09/22 01:00:41;;;;;;;1.90;0.73;;;;;;;13.85;100.00;149575.41;4914782;29;20305;-59
2023/09/22 01:03:08;;;;;;;1.50;0.70;;;;;;;13.85;100.00;149575.41;4917028;29;20225;-59
2023/09/22 01:05:38;;;;;;;1.83;0.60;;;;;;;13.90;100.00;149585.38;4912409;29;20278;-59
2023/09/22 01:08:05;;;;;;;2.80;0.77;;;;;;;13.85;100.00;149574.13;4900168;29;20238;-60
2023/09/22 01:10:40;;;;;;;0.77;0.50;;;;;;;13.76;100.00;149551.69;4898581;29;20324;-59
2023/09/22 01:13:07;;;;;;;2.67;0.60;;;;;;;13.69;100.00;149535.47;4915305;29;20237;-59
2023/09/22 01:15:41;;;;;;;1.37;0.50;;;;;;;13.59;100.00;149511.75;4899633;29;20260;-60
2023/09/22 01:18:10;;;;;;;0.87;0.50;;;;;;;13.55;100.00;149501.78;4915344;29;20320;-59
2023/09/22 01:20:43;;;;;;;0.87;0.60;;;;;;;13.54;100.00;149499.28;4897933;29;20237;-58
2023/09/22 01:23:13;;;;;;;2.60;0.50;;;;;;;13.55;100.00;149503.00;4913824;28;20575;-60
2023/09/22 01:25:40;;;;;;;2.63;0.50;;;;;;;13.62;100.00;149519.25;4914410;29;20325;-59
2023/09/22 01:28:07;;;;;;;2.23;0.40;;;;;;;13.88;100.00;149582.88;4916237;29;20332;-58
2023/09/22 01:30:39;;;;;;;1.03;0.50;;;;;;;14.04;99.58;149620.34;4898939;29;20304;-59
2023/09/22 01:33:07;;;;;;;1.23;0.60;;;;;;;14.04;100.00;149620.34;4915277;29;20224;-59
2023/09/22 01:35:38;;;;;;;2.37;0.70;;;;;;;14.02;100.00;149615.34;4912952;29;20252;-59
2023/09/22 01:38:13;;;;;;;0.93;0.60;;;;;;;14.01;100.00;149612.84;4898353;29;20782;-60
2023/09/22 01:40:40;;;;;;;0.60;0.50;;;;;;;14.06;100.00;149624.06;4910934;29;20232;-58
2023/09/22 01:43:07;;;;;;;2.33;0.60;;;;;;;14.03;100.00;149617.84;4917512;29;20625;-59
2023/09/22 01:45:38;;;;;;;1.70;0.70;;;;;;;13.95;100.00;149599.09;4913859;29;20234;-59
2023/09/22 01:48:07;;;;;;;4.03;0.50;;;;;;;13.87;100.00;149580.38;4899170;29;20238;-59
2023/09/22 01:50:40;;;;;;;0.87;0.50;;;;;;;13.82;100.00;149566.63;4913701;29;20309;-59
2023/09/22 01:53:09;;;;;;;5.13;0.60;;;;;;;13.71;100.00;149541.72;4897967;29;20225;-59
2023/09/22 01:55:41;;;;;;;3.43;0.93;;;;;;;13.65;100.00;149526.75;4898630;29;20226;-59
2023/09/22 01:58:08;;;;;;;1.30;0.77;;;;;;;13.73;100.00;149546.72;4904551;29;20304;-59
2023/09/22 02:00:38;;;;;;;0.97;0.60;;;;;;;13.67;100.00;149530.47;4915563;29;20729;-59
2023/09/22 02:03:06;;;;;;;1.40;0.70;;;;;;;13.68;100.00;149534.22;4915958;29;20253;-59
2023/09/22 02:05:38;;;;;;;2.37;0.60;;;;;;;13.61;100.00;149516.75;4897969;29;20237;-59
2023/09/22 02:08:05;;;;;;;2.17;0.70;;;;;;;13.58;100.00;149509.28;4915769;29;20243;-59
2023/09/22 02:10:39;;;;;;;1.13;0.60;;;;;;;13.61;100.00;149515.50;4895942;29;20241;-58
2023/09/22 02:13:08;;;;;;;1.10;0.63;;;;;;;13.56;100.00;149505.50;4900103;29;20228;-59
2023/09/22 02:15:38;;;;;;;2.90;0.80;;;;;;;13.56;100.00;149504.28;4896157;28;20634;-59
2023/09/22 02:18:05;;;;;;;3.33;0.50;;;;;;;13.51;100.00;149493.03;4898925;29;20241;-59
2023/09/22 02:20:40;;;;;;;1.50;0.73;;;;;;;13.60;100.00;149513.00;4892332;29;20269;-60
2023/09/22 02:23:06;;;;;;;0.93;0.53;;;;;;;13.58;100.00;149509.28;4896565;29;20350;-59
2023/09/22 02:25:39;;;;;;;3.10;0.63;;;;;;;13.62;100.00;149517.97;4896021;29;20697;-60
2023/09/22 02:28:06;;;;;;;1.63;0.50;;;;;;;13.70;100.00;149537.94;4898790;29;20239;-59
2023/09/22 02:30:39;;;;;;;1.67;0.63;;;;;;;13.88;100.00;149582.88;4898739;29;20241;-59
2023/09/22 02:35:56;;;;;;;1.43;0.60;;;;;;;14.10;99.23;149635.31;4912778;29;20249;-59
2023/09/22 02:38:23;;;;;;;2.17;0.50;;;;;;;14.16;99.66;149649.03;4913980;29;20226;-60
2023/09/22 02:40:51;;;;;;;1.00;0.53;;;;;;;14.15;100.00;149647.81;4911157;29;20597;-59
2023/09/22 02:43:17;;;;;;;2.93;0.60;;;;;;;14.22;99.18;149662.78;4899008;29;20233;-58
2023/09/22 02:45:44;;;;;;;2.50;0.80;;;;;;;14.21;100.00;149661.50;4895767;29;20245;-59
2023/09/22 02:48:11;;;;;;;1.07;0.53;;;;;;;14.19;100.00;149656.50;4899720;29;20220;-57
2023/09/22 02:50:38;;;;;;;2.47;0.60;;;;;;;14.15;100.00;149647.81;4897461;29;20231;-59
2023/09/22 02:53:04;;;;;;;2.30;0.70;;;;;;;14.12;100.00;149639.03;4903016;29;20238;-59
2023/09/22 02:55:58;;;;;;;1.93;0.57;;;;;;;14.18;100.00;149654.03;4898958;29;20375;-59
2023/09/22 02:58:25;;;;;;;1.77;0.60;;;;;;;14.20;98.88;149659.00;4896464;29;20329;-59
2023/09/22 03:03:54;;;;;;;2.20;0.70;;;;;;;14.40;99.42;149707.69;5640621;23;20335;-59
2023/09/22 03:06:21;;;;;;;0.80;0.60;;;;;;;14.38;98.77;149701.47;4930100;28;20715;-58
2023/09/22 03:08:48;;;;;;;1.13;0.53;;;;;;;14.51;98.00;149733.94;4924328;28;20312;-59
2023/09/22 03:11:16;;;;;;;1.63;0.50;;;;;;;14.50;97.64;149731.44;4927521;29;20286;-58
2023/09/22 03:13:42;;;;;;;2.33;0.63;;;;;;;14.52;96.35;149736.41;4923922;28;20238;-58
2023/09/22 03:16:10;;;;;;;2.90;0.50;;;;;;;14.53;95.70;149738.91;4927180;29;20600;-58
2023/09/22 03:18:36;;;;;;;1.80;0.53;;;;;;;14.57;94.59;149748.91;4924703;28;20624;-59
2023/09/22 03:21:03;;;;;;;1.23;0.60;;;;;;;14.63;96.04;149762.63;4927479;29;20237;-58
2023/09/22 03:23:29;;;;;;;2.30;0.73;;;;;;;14.70;93.52;149780.16;4926355;29;20617;-58
2023/09/22 03:25:56;;;;;;;2.00;0.80;;;;;;;14.68;93.19;149775.13;4937777;28;20239;-58
2023/09/22 03:28:24;;;;;;;1.23;0.60;;;;;;;14.68;93.01;149775.13;4927256;29;20236;-58
2023/09/22 03:30:51;;;;;;;2.33;0.63;;;;;;;14.68;92.82;149773.88;5142379;23;20220;-58
2023/09/22 03:33:18;;;;;;;1.67;0.53;;;;;;;14.70;92.74;149780.16;4914528;29;20244;-58
2023/09/22 03:35:46;;;;;;;0.80;0.50;;;;;;;14.68;92.22;149773.88;4911444;28;20255;-58
2023/09/22 03:38:15;;;;;;;3.13;0.60;;;;;;;14.67;91.54;149771.38;4920100;29;20289;-57
2023/09/22 03:40:41;;;;;;;2.87;1.00;;;;;;;14.62;92.25;149760.13;4921607;28;20234;-58
2023/09/22 03:43:09;;;;;;;0.80;0.50;;;;;;;14.63;92.42;149761.41;4912558;29;20243;-59
2023/09/22 03:45:39;;;;;;;0.93;0.60;;;;;;;14.74;90.72;149788.91;4911219;29;20238;-57
2023/09/22 03:48:08;;;;;;;1.40;0.67;;;;;;;14.79;92.07;149800.13;4896776;29;20318;-58
2023/09/22 03:50:39;;;;;;;2.23;0.53;;;;;;;14.76;91.56;149793.91;4894995;29;20304;-58
2023/09/22 03:53:05;;;;;;;3.03;0.60;;;;;;;14.68;92.34;149773.88;4897463;29;20245;-58
2023/09/22 03:55:39;;;;;;;2.40;0.60;;;;;;;14.69;91.13;149776.38;4894486;28;20239;-58
2023/09/22 03:58:06;;;;;;;1.47;0.80;;;;;;;14.64;90.76;149765.13;4899013;29;20293;-58
2023/09/22 04:00:40;;;;;;;1.60;0.60;;;;;;;14.61;89.65;149758.91;4896512;29;21202;-58
2023/09/22 04:03:07;;;;;;;2.50;0.57;;;;;;;14.58;90.71;149751.41;4897064;29;20244;-58
2023/09/22 04:05:38;;;;;;;2.30;0.70;;;;;;;14.57;92.47;149748.91;4911064;29;20725;-59
2023/09/22 04:08:06;;;;;;;1.13;0.67;;;;;;;14.60;94.79;149756.41;4906053;29;20714;-56
2023/09/22 04:10:39;;;;;;;4.63;0.60;;;;;;;14.62;93.14;149760.13;4895368;28;20559;-58
2023/09/22 04:13:06;;;;;;;2.70;0.70;;;;;;;14.60;94.52;149756.41;4911842;29;20238;-58
2023/09/22 04:15:38;;;;;;;0.70;0.50;;;;;;;14.60;93.18;149755.13;4908476;29;20646;-59
2023/09/22 04:18:07;;;;;;;2.27;0.50;;;;;;;14.61;94.09;149757.63;4896959;29;20242;-59
2023/09/22 04:20:43;;;;;;;1.00;0.50;;;;;;;14.59;92.56;149753.91;4896639;28;20694;-58
2023/09/22 04:23:10;;;;;;;0.60;0.30;;;;;;;14.66;90.97;149770.13;4895958;29;20243;-58
2023/09/22 04:25:38;;;;;;;0.57;0.40;;;;;;;14.63;92.46;149762.63;4897797;29;20250;-58
2023/09/22 04:28:11;;;;;;;2.93;0.60;;;;;;;14.65;91.11;149767.63;4897176;29;20227;-58
2023/09/22 04:30:38;;;;;;;0.70;0.40;;;;;;;14.76;90.03;149795.13;4894450;29;20244;-58
2023/09/22 04:33:06;;;;;;;0.97;0.50;;;;;;;14.71;94.63;149781.44;4901315;29;20238;-58
2023/09/22 04:35:38;;;;;;;1.13;0.67;;;;;;;14.71;89.91;149781.44;4894123;28;20301;-58
2023/09/22 04:38:05;;;;;;;2.17;0.67;;;;;;;14.79;89.76;149801.41;4899344;29;20237;-58
2023/09/22 04:40:38;;;;;;;1.03;0.50;;;;;;;14.80;89.37;149802.63;4894653;29;20234;-58
2023/09/22 04:43:07;;;;;;;0.60;0.43;;;;;;;14.97;86.58;149843.81;4895832;29;20235;-58
2023/09/22 04:45:40;;;;;;;0.70;0.50;;;;;;;15.00;87.65;149851.31;4894713;29;20232;-58
2023/09/22 04:48:08;;;;;;;3.60;0.63;;;;;;;15.07;86.77;149867.59;4901886;29;20238;-57
2023/09/22 04:50:39;;;;;;;3.53;0.50;;;;;;;15.12;87.95;149881.31;4895075;29;20341;-57
2023/09/22 04:53:06;;;;;;;3.13;0.50;;;;;;;15.07;88.19;149867.59;4897248;29;20265;-58
2023/09/22 04:55:38;;;;;;;1.00;0.50;;;;;;;15.14;89.42;149885.06;4897023;28;20238;-57
2023/09/22 04:58:05;;;;;;;2.83;0.60;;;;;;;15.08;90.14;149871.31;4897216;29;20238;-56
2023/09/22 05:00:38;;;;;;;2.80;0.60;;;;;;;15.09;89.51;149873.81;4894417;29;20286;-57
2023/09/22 05:03:05;;;;;;;0.87;0.50;;;;;;;15.09;90.67;149873.81;4897256;29;20729;-60
2023/09/22 05:05:39;;;;;;;1.33;0.40;;;;;;;15.23;90.13;149906.28;4897385;28;20227;-57
2023/09/22 05:08:07;;;;;;;1.63;0.50;;;;;;;15.19;90.80;149897.56;4897967;29;20243;-58
2023/09/22 05:10:37;;;;;;;1.63;0.60;;;;;;;15.15;90.67;149887.56;4893532;29;20309;-55
2023/09/22 05:13:04;;;;;;;2.07;0.40;;;;;;;15.10;93.86;149875.06;4896898;29;20245;-57
2023/09/22 05:15:41;;;;;;;1.30;0.50;;;;;;;15.03;93.10;149858.81;4895145;28;20241;-58
2023/09/22 05:18:12;;;;;;;1.00;0.40;;;;;;;14.99;93.14;149850.09;4896985;29;20223;-56
2023/09/22 05:20:40;;;;;;;1.40;0.77;;;;;;;15.00;93.36;149852.59;4893931;28;20224;-57
2023/09/22 05:23:07;;;;;;;1.03;0.50;;;;;;;15.02;94.60;149856.31;4898332;29;20259;-57
2023/09/22 05:25:41;;;;;;;3.53;0.60;;;;;;;15.00;93.65;149851.31;4898164;29;20220;-58
2023/09/22 05:28:09;;;;;;;1.43;0.50;;;;;;;14.97;96.58;149845.09;4900792;29;20259;-58
2023/09/22 05:30:39;;;;;;;2.97;0.60;;;;;;;14.98;97.79;149846.31;4898131;29;20231;-57
2023/09/22 05:33:07;;;;;;;1.50;0.60;;;;;;;14.98;96.22;149846.31;4901350;29;20286;-58
2023/09/22 05:35:38;;;;;;;1.77;0.60;;;;;;;15.04;95.64;149861.31;4897299;28;20228;-56
2023/09/22 05:38:06;;;;;;;0.50;0.40;;;;;;;15.08;95.04;149871.31;4899724;29;20226;-58
2023/09/22 05:40:38;;;;;;;1.00;0.60;;;;;;;15.08;95.73;149871.31;4899197;28;20234;-58
2023/09/22 05:43:05;;;;;;;1.40;1.10;;;;;;;15.05;96.08;149863.81;4900884;29;20589;-58
2023/09/22 05:45:38;;;;;;;2.10;0.83;;;;;;;15.10;94.23;149876.31;4900003;28;20226;-56
2023/09/22 05:48:07;;;;;;;1.60;0.50;;;;;;;15.15;94.65;149887.56;4901600;29;20706;-58
2023/09/22 05:50:38;;;;;;;1.23;0.53;;;;;;;15.28;95.89;149918.78;4896616;28;20624;-58
2023/09/22 05:53:07;;;;;;;1.43;0.50;;;;;;;15.22;94.96;149903.78;4901173;29;20238;-58
2023/09/22 05:55:37;;;;;;;1.30;0.50;;;;;;;15.25;93.96;149911.28;4896432;29;20246;-57
2023/09/22 05:58:06;;;;;;;2.00;0.70;;;;;;;15.20;94.87;149901.28;4905344;29;20266;-58
2023/09/22 06:00:39;;;;;;;1.30;0.60;;;;;;;15.19;95.10;149898.78;4899309;29;20711;-57
2023/09/22 06:03:06;;;;;;;1.07;0.50;;;;;;;15.19;96.08;149898.78;4899247;29;20235;-57
2023/09/22 06:05:39;;;;;;;1.43;0.70;;;;;;;15.20;96.39;149900.06;4914352;29;20237;-58
2023/09/22 06:08:07;;;;;;;1.30;0.70;;;;;;;15.23;95.34;149906.28;4899434;29;20572;-58
2023/09/22 06:10:38;;;;;;;3.67;1.13;;;;;;;15.22;95.68;149905.06;4898053;29;20319;-57
2023/09/22 06:13:05;;;;;;;1.43;0.60;;;;;;;15.20;95.49;149900.06;4899504;29;20713;-58
2023/09/22 06:15:38;;;;;;;1.90;0.83;;;;;;;15.13;98.86;149882.56;4893995;28;20231;-58
2023/09/22 06:18:05;;;;;;;2.50;0.80;;;;;;;15.03;100.00;149860.09;4916878;29;20566;-57
2023/09/22 06:20:38;;;;;;;2.33;0.80;;;;;;;15.01;99.46;149855.09;4897558;29;20246;-58
2023/09/22 06:23:04;;;;;;;3.43;0.97;;;;;;;14.96;100.00;149841.31;4912922;29;20237;-57
2023/09/22 06:26:04;;;;;;;2.43;0.60;;;;;;;15.02;100.00;149856.31;4899874;29;20297;-58
2023/09/22 06:28:31;;;;;;;0.80;0.70;;;;;;;15.10;100.00;149876.31;4901339;29;20242;-58
2023/09/22 06:30:59;;;;;;;2.43;0.80;;;;;;;15.09;100.00;149873.81;4894970;28;20239;-58
2023/09/22 06:33:27;;;;;;;1.73;0.90;;;;;;;15.09;100.00;149872.59;4899881;29;20228;-58
2023/09/22 06:35:56;;;;;;;4.37;1.33;;;;;;;15.09;100.00;149873.81;4895756;29;20260;-58
2023/09/22 06:38:23;;;;;;;2.10;0.80;;;;;;;15.09;100.00;149872.59;4899737;29;20242;-58
2023/09/22 06:40:54;;;;;;;2.40;0.50;;;;;;;15.07;98.91;149867.59;4896148;29;20228;-58
2023/09/22 06:43:24;;;;;;;1.17;0.50;;;;;;;15.10;100.00;149875.06;4897711;29;20762;-58
2023/09/22 06:45:52;;;;;;;1.23;0.70;;;;;;;15.10;100.00;149875.06;4896494;28;20583;-58
2023/09/22 06:48:22;;;;;;;1.70;0.80;;;;;;;15.09;100.00;149872.59;4899281;29;20243;-58
2023/09/22 06:50:51;;;;;;;2.83;0.80;;;;;;;15.12;100.00;149881.31;4898692;28;20237;-57
2023/09/22 06:53:18;;;;;;;2.43;0.70;;;;;;;15.12;100.00;149880.06;4897617;29;20304;-58
2023/09/22 06:55:44;;;;;;;2.13;1.00;;;;;;;15.16;100.00;149891.28;4896053;29;20246;-57
2023/09/22 06:58:11;;;;;;;2.03;0.97;;;;;;;15.20;100.00;149900.06;4899774;29;20234;-57
2023/09/22 07:00:39;;;;;;;2.20;0.73;;;;;;;15.21;100.00;149902.56;4898012;29;20242;-57
2023/09/22 07:03:06;;;;;;;2.83;0.80;;;;;;;15.24;100.00;149910.06;4899051;29;20766;-57
2023/09/22 07:05:38;;;;;;;0.93;0.60;;;;;;;15.31;100.00;149926.28;4895442;29;20238;-58
2023/09/22 07:08:05;;;;;;;1.47;0.70;;;;;;;15.36;100.00;149938.78;4900304;29;20777;-56
2023/09/22 07:10:38;;;;;;;2.80;1.00;;;;;;;15.45;100.00;149959.97;4897587;28;20244;-58
2023/09/22 07:13:04;;;;;;;3.43;1.30;;;;;;;15.52;100.00;149977.47;4897834;29;20239;-57
2023/09/22 07:15:57;;;;;;;3.60;1.43;;;;;;;15.57;100.00;149989.97;4897818;29;20239;-58
2023/09/22 07:18:25;;;;;;;3.33;1.10;;;;;;;15.67;100.00;150013.72;4899348;29;20239;-58
2023/09/22 07:20:52;;;;;;;3.33;1.00;;;;;;;15.79;100.00;150042.44;4899018;29;20308;-58
2023/09/22 07:23:18;;;;;;;4.07;1.00;;;;;;;15.72;100.00;150024.97;4896264;29;20228;-57
2023/09/22 07:25:45;;;;;;;5.63;1.10;;;;;;;15.65;100.00;150008.75;4911949;29;20256;-58
2023/09/22 07:28:13;;;;;;;1.93;0.87;;;;;;;15.70;100.00;150019.97;4899393;29;20224;-59
2023/09/22 07:30:39;;;;;;;3.03;0.83;;;;;;;15.60;100.00;149997.47;4896893;29;20705;-58
2023/09/22 07:33:09;;;;;;;3.53;1.17;;;;;;;15.46;100.00;149962.47;4896507;29;20235;-57
2023/09/22 07:35:38;;;;;;;2.57;0.90;;;;;;;15.40;100.00;149947.50;4911149;28;20310;-59
2023/09/22 07:38:04;;;;;;;2.57;1.20;;;;;;;15.26;100.00;149915.06;4900256;29;20255;-58
2023/09/22 07:40:38;;;;;;;3.00;1.13;;;;;;;15.15;100.00;149888.78;4899274;28;20243;-59
2023/09/22 07:43:05;;;;;;;1.13;0.90;;;;;;;15.18;100.00;149895.06;4900838;29;20236;-58
2023/09/22 07:45:38;;;;;;;2.23;0.70;;;;;;;15.17;100.00;149892.56;4896864;29;20220;-59
2023/09/22 07:48:05;;;;;;;3.93;1.00;;;;;;;15.12;100.00;149880.06;4899724;29;20248;-57
2023/09/22 07:50:58;;;;;;;2.90;0.97;;;;;;;15.13;100.00;149883.81;4894805;29;20242;-58
2023/09/22 07:53:25;;;;;;;3.43;0.80;;;;;;;15.14;100.00;149885.06;4900465;29;20236;-58
2023/09/22 07:55:55;;;;;;;2.63;1.23;;;;;;;15.12;100.00;149881.31;4896347;29;20333;-58
2023/09/22 07:58:22;;;;;;;2.90;0.70;;;;;;;15.23;100.00;149907.56;4896835;29;20279;-58
2023/09/22 08:00:48;;;;;;;1.67;0.80;;;;;;;15.25;100.00;149911.28;4897090;29;20241;-58
2023/09/22 08:03:16;;;;;;;2.87;0.90;;;;;;;15.39;100.00;149946.25;4899986;29;20231;-59
2023/09/22 08:05:43;;;;;;;2.60;0.70;;;;;;;15.48;100.00;149968.75;4896615;29;20699;-58
2023/09/22 08:08:11;;;;;;;1.33;0.90;;;;;;;15.69;100.00;150018.75;4898774;29;20239;-58
2023/09/22 08:10:39;;;;;;;2.63;0.80;;;;;;;15.77;99.31;150037.47;4894943;28;20793;-58
2023/09/22 08:13:07;;;;;;;2.60;0.90;;;;;;;15.94;99.77;150078.72;4897471;29;20262;-56
2023/09/22 08:15:38;;;;;;;2.30;0.70;;;;;;;16.13;97.27;150125.00;4894342;29;20230;-56
2023/09/22 08:18:06;;;;;;;2.37;0.87;;;;;;;16.34;96.60;150176.22;4899490;29;20233;-58
2023/09/22 08:20:38;;;;;;;1.70;0.60;;;;;;;16.33;94.58;150172.50;4898577;29;20254;-57
2023/09/22 08:23:04;;;;;;;1.80;0.70;;;;;;;16.61;92.38;150241.22;4902034;29;20242;-58
2023/09/22 08:25:43;;;;;;;2.67;0.60;;;;;;;16.72;90.55;150266.22;4894231;29;20229;-58
2023/09/22 08:28:12;;;;;;;1.57;0.60;;;;;;;16.78;88.29;150282.47;4895709;29;20237;-59
2023/09/22 08:30:39;;;;;;;2.87;0.60;;;;;;;16.73;92.47;150268.75;4894654;29;20734;-58
2023/09/22 08:33:07;;;;;;;1.57;0.67;;;;;;;16.89;91.71;150307.47;4898277;29;20587;-59
2023/09/22 08:35:39;;;;;;;1.33;0.63;;;;;;;16.85;89.37;150298.75;4892156;29;20307;-59
2023/09/22 08:38:06;;;;;;;1.60;0.60;;;;;;;16.76;89.62;150276.22;4898273;29;20242;-59
2023/09/22 08:40:39;;;;;;;3.07;0.60;;;;;;;16.83;88.13;150293.75;4894613;29;20284;-56
2023/09/22 08:43:08;;;;;;;3.03;0.50;;;;;;;16.70;88.19;150262.47;4902414;29;20231;-58
2023/09/22 08:45:38;;;;;;;1.63;0.50;;;;;;;16.83;88.34;150293.75;4894814;29;20315;-58
2023/09/22 08:48:05;;;;;;;2.30;0.50;;;;;;;16.89;89.54;150307.47;4897724;29;20242;-59
2023/09/22 08:50:38;;;;;;;0.97;0.50;;;;;;;16.93;92.39;150318.75;4893334;29;20699;-58
2023/09/22 08:53:05;;;;;;;1.77;0.50;;;;;;;17.16;92.39;150372.56;4897930;29;20226;-59
2023/09/22 08:55:39;;;;;;;1.70;0.60;;;;;;;17.58;90.44;150473.84;4892216;28;20244;-58
2023/09/22 08:58:06;;;;;;;2.47;0.60;;;;;;;17.54;85.28;150466.34;4899467;29;20235;-58
2023/09/22 09:00:38;;;;;;;2.20;0.50;;;;;;;16.95;87.54;150323.75;4898768;29;20744;-59
2023/09/22 09:03:09;;;;;;;1.77;0.60;;;;;;;17.20;86.08;150383.78;4902256;29;20236;-58
2023/09/22 09:05:39;;;;;;;4.03;0.70;;;;;;;17.15;88.65;150370.06;4898147;29;20348;-59
2023/09/22 09:08:18;;;;;;;2.50;0.50;;;;;;;17.36;83.36;150421.31;4900169;29;20319;-57
2023/09/22 09:10:47;;;;;;;1.90;0.60;;;;;;;17.46;85.54;150445.09;4896593;28;20296;-59
2023/09/22 09:13:16;;;;;;;1.07;0.40;;;;;;;17.47;83.76;150447.59;4904108;29;20297;-59
2023/09/22 09:15:45;;;;;;;1.03;0.50;;;;;;;17.34;83.62;150416.31;4899394;29;20699;-59
2023/09/22 09:18:13;;;;;;;2.10;0.70;;;;;;;17.62;82.02;150485.09;4901015;29;20283;-58
2023/09/22 09:20:41;;;;;;;1.23;0.50;;;;;;;17.57;84.59;150472.56;4900361;29;20215;-59
2023/09/22 09:23:13;;;;;;;3.90;0.70;;;;;;;17.65;83.47;150492.59;4903291;29;20373;-60
2023/09/22 09:25:42;;;;;;;5.80;0.60;;;;;;;17.50;82.97;150455.06;4898232;28;20576;-59
2023/09/22 09:28:10;;;;;;;3.97;0.60;;;;;;;17.43;83.38;150437.59;4902739;29;20244;-60
2023/09/22 09:30:38;;;;;;;1.50;0.50;;;;;;;17.41;83.51;150433.81;4900024;29;20242;-59
2023/09/22 09:33:09;;;;;;;1.93;0.83;;;;;;;17.24;84.73;150392.56;4900404;29;20303;-60
2023/09/22 09:35:39;;;;;;;1.90;0.70;;;;;;;17.26;85.09;150398.78;4896511;29;20239;-58
2023/09/22 09:38:06;;;;;;;2.73;0.60;;;;;;;17.26;87.23;150397.56;4901071;29;20266;-58
2023/09/22 09:40:38;;;;;;;5.40;1.00;;;;;;;17.50;86.14;150456.34;4900576;28;20308;-58
2023/09/22 09:43:11;;;;;;;2.10;0.60;;;;;;;17.85;86.05;150540.13;4902348;29;20254;-61
2023/09/22 09:45:49;;;;;;;1.60;0.93;;;;;;;18.17;85.49;150616.50;4897635;29;20298;-59
2023/09/22 09:48:17;;;;;;;1.83;0.90;;;;;;;18.39;84.04;150670.31;4899695;29;20624;-61
2023/09/22 09:50:46;;;;;;;2.13;0.70;;;;;;;18.30;83.00;150649.03;4896326;29;20335;-62
2023/09/22 09:53:27;;;;;;;0.70;0.40;;;;;;;17.79;86.20;150526.41;4901150;29;20224;-62
2023/09/22 09:55:58;;;;;;;3.17;0.53;;;;;;;17.43;89.32;150438.81;4900271;28;20285;-62
2023/09/22 09:58:31;;;;;;;2.77;0.80;;;;;;;17.05;91.76;150346.25;4902093;29;20220;-62
2023/09/22 10:00:58;;;;;;;2.10;0.63;;;;;;;17.15;88.30;150370.06;4898607;29;20697;-62
2023/09/22 10:03:26;;;;;;;1.53;0.70;;;;;;;17.10;93.74;150360.03;4899288;29;20241;-61
2023/09/22 10:05:55;;;;;;;1.33;0.40;;;;;;;17.24;87.96;150393.78;4895443;28;20690;-61
2023/09/22 10:08:23;;;;;;;1.47;0.50;;;;;;;17.13;88.16;150365.06;4900457;29;20628;-61
2023/09/22 10:10:51;;;;;;;2.00;0.70;;;;;;;17.01;90.14;150336.25;4898094;29;20590;-60
2023/09/22 10:13:18;;;;;;;1.23;0.57;;;;;;;17.14;90.07;150368.78;4902353;29;20218;-62
2023/09/22 10:15:58;;;;;;;1.27;0.40;;;;;;;17.25;86.89;150396.28;4898652;29;20230;-61
2023/09/22 10:18:46;;;;;;;2.50;0.50;;;;;;;17.47;86.18;150448.81;4900454;29;20324;-61
2023/09/22 10:21:46;;;;;;;0.60;0.40;;;;;;;17.54;84.96;150466.34;4897365;29;20288;-62
2023/09/22 10:24:17;;;;;;;3.67;0.80;;;;;;;17.68;84.25;150498.88;4898812;29;20230;-62
2023/09/22 10:27:15;;;;;;;1.00;0.60;;;;;;;17.96;82.14;150567.66;4897579;29;20239;-60
2023/09/22 10:29:51;;;;;;;2.10;0.60;;;;;;;17.97;81.42;150570.16;4896598;29;20247;-60
2023/09/22 10:32:24;;;;;;;3.77;0.70;;;;;;;17.94;80.75;150562.66;4897910;29;20239;-60
2023/09/22 10:34:53;;;;;;;1.80;0.60;;;;;;;17.92;73.87;150556.44;4897516;29;20247;-63
2023/09/22 10:37:20;;;;;;;2.73;0.63;;;;;;;17.96;74.34;150567.66;4897346;29;20258;-60
2023/09/22 10:39:51;;;;;;;1.20;0.60;;;;;;;17.86;76.52;150542.63;4896608;29;20256;-62
2023/09/22 10:42:18;;;;;;;2.50;0.70;;;;;;;17.97;73.94;150568.94;4897961;29;20260;-61
2023/09/22 10:44:58;;;;;;;2.63;0.60;;;;;;;18.16;73.12;150615.25;4896717;29;20236;-60
2023/09/22 10:47:36;;;;;;;2.97;0.70;;;;;;;18.25;72.99;150636.50;4898987;29;20274;-61
2023/09/22 10:50:19;;;;;;;1.83;0.60;;;;;;;18.36;70.34;150664.03;4896734;29;20664;-61
2023/09/22 10:52:54;;;;;;;1.30;0.70;;;;;;;18.49;69.15;150695.38;4898180;29;20236;-60
2023/09/22 10:55:29;;;;;;;4.17;0.53;;;;;;;18.61;66.73;150722.84;4898718;29;20290;-60
2023/09/22 10:57:57;;;;;;;3.47;0.77;;;;;;;18.93;66.01;150800.47;4897153;29;20243;-60
2023/09/22 11:00:24;;;;;;;2.57;0.80;;;;;;;18.88;65.83;150790.44;4898764;29;20743;-60
2023/09/22 11:02:53;;;;;;;2.17;0.60;;;;;;;18.81;67.66;150772.94;4896007;29;20225;-60
2023/09/22 11:05:20;;;;;;;2.00;0.60;;;;;;;18.79;68.22;150766.69;4899300;29;20585;-60
2023/09/22 11:07:46;;;;;;;3.33;0.90;;;;;;;19.09;70.74;150840.59;4895225;29;20229;-60
2023/09/22 11:10:20;;;;;;;0.77;0.40;;;;;;;19.30;65.78;150891.91;4901579;29;20245;-59
2023/09/22 11:12:48;;;;;;;2.53;0.87;;;;;;;19.51;66.09;150940.75;4897131;29;20242;-61
2023/09/22 11:15:15;;;;;;;5.07;0.53;;;;;;;19.57;64.22;150957.03;4901255;29;20260;-60
2023/09/22 11:17:46;;;;;;;2.00;0.53;;;;;;;19.82;64.02;151015.88;4895849;29;20236;-60
2023/09/22 11:20:18;;;;;;;0.60;0.40;;;;;;;20.32;58.60;151138.69;4900190;29;20220;-61
2023/09/22 11:22:46;;;;;;;2.10;0.60;;;;;;;20.73;61.06;151236.38;4896240;29;20246;-60
2023/09/22 11:25:13;;;;;;;3.87;0.50;;;;;;;20.60;60.65;151205.06;4901687;29;20258;-61
2023/09/22 11:27:44;;;;;;;3.10;0.60;;;;;;;20.48;58.06;151177.50;4897260;29;20219;-61
2023/09/22 11:30:14;;;;;;;1.83;0.57;;;;;;;20.12;57.49;151089.84;4905270;29;20242;-61
2023/09/22 11:32:41;;;;;;;2.33;0.50;;;;;;;20.38;60.99;151152.44;4896088;29;20231;-61
2023/09/22 11:35:08;;;;;;;2.27;0.57;;;;;;;20.15;59.54;151097.31;4897300;29;20279;-61
2023/09/22 11:37:36;;;;;;;3.93;0.60;;;;;;;19.72;62.25;150993.31;4894289;29;20723;-61
2023/09/22 11:40:13;;;;;;;2.33;0.63;;;;;;;19.81;61.65;151014.63;4907441;29;20646;-61